sensor_id;sensor_type;location;lat;lon;timestamp;P1;durP1;ratioP1;P2;durP2;ratioP2
22068;SDS011;13887;57.196;-2.100;2023-06-24T00:00:07;12.20;;;11.80;;
22068;SDS011;13887;57.196;-2.100;2023-06-24T00:02:45;12.10;;;11.70;;
22068;SDS011;13887;57.196;-2.100;2023-06-24T00:05:15;11.63;;;11.23;;
22068;SDS011;13887;57.196;-2.100;2023-06-24T00:07:52;12.17;;;11.77;;
22068;SDS011;13887;57.196;-2.100;2023-06-24T00:10:26;12.03;;;11.63;;
22068;SDS011;13887;57.196;-2.100;2023-06-24T00:12:56;11.87;;;11.47;;
22068;SDS011;13887;57.196;-2.100;2023-06-24T00:15:28;11.90;;;11.50;;
22068;SDS011;13887;57.196;-2.100;2023-06-24T00:17:58;11.67;;;11.27;;
22068;SDS011;13887;57.196;-2.100;2023-06-24T00:20:33;11.80;;;11.40;;
22068;SDS011;13887;57.196;-2.100;2023-06-24T00:23:01;12.20;;;11.80;;
22068;SDS011;13887;57.196;-2.100;2023-06-24T00:25:35;12.13;;;11.73;;
22068;SDS011;13887;57.196;-2.100;2023-06-24T00:28:02;12.13;;;11.73;;
22068;SDS011;13887;57.196;-2.100;2023-06-24T00:30:30;11.90;;;11.50;;
22068;SDS011;13887;57.196;-2.100;2023-06-24T00:33:00;12.10;;;11.70;;
22068;SDS011;13887;57.196;-2.100;2023-06-24T00:35:29;11.63;;;11.23;;
22068;SDS011;13887;57.196;-2.100;2023-06-24T00:37:57;11.70;;;11.30;;
22068;SDS011;13887;57.196;-2.100;2023-06-24T00:40:26;11.73;;;11.33;;
22068;SDS011;13887;57.196;-2.100;2023-06-24T00:43:01;11.87;;;11.47;;
22068;SDS011;13887;57.196;-2.100;2023-06-24T00:45:33;12.60;;;12.20;;
22068;SDS011;13887;57.196;-2.100;2023-06-24T00:48:04;12.40;;;12.00;;
22068;SDS011;13887;57.196;-2.100;2023-06-24T00:50:36;11.97;;;11.57;;
22068;SDS011;13887;57.196;-2.100;2023-06-24T00:53:09;11.83;;;11.43;;
22068;SDS011;13887;57.196;-2.100;2023-06-24T00:55:37;12.10;;;11.70;;
22068;SDS011;13887;57.196;-2.100;2023-06-24T00:58:07;12.20;;;11.80;;
22068;SDS011;13887;57.196;-2.100;2023-06-24T01:00:37;12.50;;;12.10;;
22068;SDS011;13887;57.196;-2.100;2023-06-24T01:03:08;12.37;;;11.97;;
22068;SDS011;13887;57.196;-2.100;2023-06-24T01:05:41;11.93;;;11.53;;
22068;SDS011;13887;57.196;-2.100;2023-06-24T01:08:14;12.10;;;11.70;;
22068;SDS011;13887;57.196;-2.100;2023-06-24T01:10:46;12.23;;;11.83;;
22068;SDS011;13887;57.196;-2.100;2023-06-24T01:13:14;12.03;;;11.63;;
22068;SDS011;13887;57.196;-2.100;2023-06-24T01:15:41;11.90;;;11.50;;
22068;SDS011;13887;57.196;-2.100;2023-06-24T01:21:01;12.27;;;11.87;;
22068;SDS011;13887;57.196;-2.100;2023-06-24T01:23:51;12.43;;;12.03;;
22068;SDS011;13887;57.196;-2.100;2023-06-24T01:34:34;12.13;;;11.73;;
22068;SDS011;13887;57.196;-2.100;2023-06-24T01:37:35;12.20;;;11.80;;
22068;SDS011;13887;57.196;-2.100;2023-06-24T01:40:26;11.93;;;11.53;;
22068;SDS011;13887;57.196;-2.100;2023-06-24T01:42:55;11.90;;;11.50;;
22068;SDS011;13887;57.196;-2.100;2023-06-24T01:45:35;12.10;;;11.70;;
22068;SDS011;13887;57.196;-2.100;2023-06-24T01:48:14;12.37;;;11.97;;
22068;SDS011;13887;57.196;-2.100;2023-06-24T01:50:44;12.27;;;11.87;;
22068;SDS011;13887;57.196;-2.100;2023-06-24T01:53:23;12.50;;;12.10;;
22068;SDS011;13887;57.196;-2.100;2023-06-24T01:55:56;12.30;;;11.90;;
22068;SDS011;13887;57.196;-2.100;2023-06-24T01:58:30;12.20;;;11.80;;
22068;SDS011;13887;57.196;-2.100;2023-06-24T02:01:07;12.13;;;11.73;;
22068;SDS011;13887;57.196;-2.100;2023-06-24T02:03:37;12.43;;;12.03;;
22068;SDS011;13887;57.196;-2.100;2023-06-24T02:06:15;12.47;;;12.07;;
22068;SDS011;13887;57.196;-2.100;2023-06-24T02:08:45;12.27;;;11.87;;
22068;SDS011;13887;57.196;-2.100;2023-06-24T02:11:19;12.23;;;11.83;;
22068;SDS011;13887;57.196;-2.100;2023-06-24T02:13:50;12.30;;;11.90;;
22068;SDS011;13887;57.196;-2.100;2023-06-24T02:16:21;12.57;;;12.17;;
22068;SDS011;13887;57.196;-2.100;2023-06-24T02:18:53;12.43;;;12.03;;
22068;SDS011;13887;57.196;-2.100;2023-06-24T02:21:32;12.27;;;11.87;;
22068;SDS011;13887;57.196;-2.100;2023-06-24T02:24:04;11.77;;;11.37;;
22068;SDS011;13887;57.196;-2.100;2023-06-24T02:26:33;12.37;;;11.97;;
22068;SDS011;13887;57.196;-2.100;2023-06-24T02:29:04;12.37;;;11.97;;
22068;SDS011;13887;57.196;-2.100;2023-06-24T02:31:37;12.17;;;11.77;;
22068;SDS011;13887;57.196;-2.100;2023-06-24T02:34:04;12.63;;;12.23;;
22068;SDS011;13887;57.196;-2.100;2023-06-24T02:36:35;11.97;;;11.57;;
22068;SDS011;13887;57.196;-2.100;2023-06-24T02:39:03;12.30;;;11.90;;
22068;SDS011;13887;57.196;-2.100;2023-06-24T02:41:33;12.40;;;12.00;;
22068;SDS011;13887;57.196;-2.100;2023-06-24T02:44:02;12.50;;;12.10;;
22068;SDS011;13887;57.196;-2.100;2023-06-24T02:46:38;12.40;;;12.00;;
22068;SDS011;13887;57.196;-2.100;2023-06-24T02:49:10;11.83;;;11.43;;
22068;SDS011;13887;57.196;-2.100;2023-06-24T02:51:41;11.93;;;11.53;;
22068;SDS011;13887;57.196;-2.100;2023-06-24T02:54:17;12.10;;;11.70;;
22068;SDS011;13887;57.196;-2.100;2023-06-24T02:57:11;12.10;;;11.70;;
22068;SDS011;13887;57.196;-2.100;2023-06-24T03:00:01;12.13;;;11.73;;
22068;SDS011;13887;57.196;-2.100;2023-06-24T03:02:55;12.43;;;12.03;;
22068;SDS011;13887;57.196;-2.100;2023-06-24T03:05:25;12.30;;;11.90;;
22068;SDS011;13887;57.196;-2.100;2023-06-24T03:07:54;11.67;;;11.27;;
22068;SDS011;13887;57.196;-2.100;2023-06-24T03:10:25;12.50;;;12.10;;
22068;SDS011;13887;57.196;-2.100;2023-06-24T03:12:57;12.60;;;12.20;;
22068;SDS011;13887;57.196;-2.100;2023-06-24T03:15:37;12.73;;;12.33;;
22068;SDS011;13887;57.196;-2.100;2023-06-24T03:18:08;12.40;;;12.00;;
22068;SDS011;13887;57.196;-2.100;2023-06-24T03:20:41;12.10;;;11.70;;
22068;SDS011;13887;57.196;-2.100;2023-06-24T03:23:13;12.70;;;12.30;;
22068;SDS011;13887;57.196;-2.100;2023-06-24T03:25:48;12.63;;;12.23;;
22068;SDS011;13887;57.196;-2.100;2023-06-24T03:28:23;12.80;;;12.40;;
22068;SDS011;13887;57.196;-2.100;2023-06-24T03:31:04;12.30;;;11.90;;
22068;SDS011;13887;57.196;-2.100;2023-06-24T03:33:43;12.60;;;12.20;;
22068;SDS011;13887;57.196;-2.100;2023-06-24T03:36:13;12.30;;;11.90;;
22068;SDS011;13887;57.196;-2.100;2023-06-24T03:38:41;12.37;;;11.97;;
22068;SDS011;13887;57.196;-2.100;2023-06-24T03:41:09;12.47;;;12.07;;
22068;SDS011;13887;57.196;-2.100;2023-06-24T03:43:39;12.70;;;12.30;;
22068;SDS011;13887;57.196;-2.100;2023-06-24T03:46:07;12.37;;;11.97;;
22068;SDS011;13887;57.196;-2.100;2023-06-24T03:48:38;12.77;;;12.37;;
22068;SDS011;13887;57.196;-2.100;2023-06-24T03:51:06;12.67;;;12.27;;
22068;SDS011;13887;57.196;-2.100;2023-06-24T03:53:36;12.83;;;12.43;;
22068;SDS011;13887;57.196;-2.100;2023-06-24T03:56:06;12.70;;;12.30;;
22068;SDS011;13887;57.196;-2.100;2023-06-24T03:58:34;12.40;;;12.00;;
22068;SDS011;13887;57.196;-2.100;2023-06-24T04:01:03;12.57;;;12.17;;
22068;SDS011;13887;57.196;-2.100;2023-06-24T04:03:36;12.47;;;12.07;;
22068;SDS011;13887;57.196;-2.100;2023-06-24T04:06:07;12.43;;;12.03;;
22068;SDS011;13887;57.196;-2.100;2023-06-24T04:08:40;12.63;;;12.23;;
22068;SDS011;13887;57.196;-2.100;2023-06-24T04:11:10;12.77;;;12.37;;
22068;SDS011;13887;57.196;-2.100;2023-06-24T04:13:38;12.37;;;11.97;;
22068;SDS011;13887;57.196;-2.100;2023-06-24T04:16:16;12.70;;;12.30;;
22068;SDS011;13887;57.196;-2.100;2023-06-24T04:18:46;12.60;;;12.20;;
22068;SDS011;13887;57.196;-2.100;2023-06-24T04:21:13;12.33;;;11.93;;
22068;SDS011;13887;57.196;-2.100;2023-06-24T04:23:49;12.83;;;12.43;;
22068;SDS011;13887;57.196;-2.100;2023-06-24T04:26:22;12.60;;;12.20;;
22068;SDS011;13887;57.196;-2.100;2023-06-24T04:28:50;12.70;;;12.30;;
22068;SDS011;13887;57.196;-2.100;2023-06-24T04:31:24;12.47;;;12.07;;
22068;SDS011;13887;57.196;-2.100;2023-06-24T04:33:52;12.67;;;12.27;;
22068;SDS011;13887;57.196;-2.100;2023-06-24T04:36:23;12.50;;;12.10;;
22068;SDS011;13887;57.196;-2.100;2023-06-24T04:38:53;12.77;;;12.37;;
22068;SDS011;13887;57.196;-2.100;2023-06-24T04:41:21;12.73;;;12.33;;
22068;SDS011;13887;57.196;-2.100;2023-06-24T04:43:54;12.70;;;12.30;;
22068;SDS011;13887;57.196;-2.100;2023-06-24T04:46:24;12.43;;;12.03;;
22068;SDS011;13887;57.196;-2.100;2023-06-24T04:48:58;12.77;;;12.37;;
22068;SDS011;13887;57.196;-2.100;2023-06-24T04:51:26;12.60;;;12.20;;
22068;SDS011;13887;57.196;-2.100;2023-06-24T04:53:56;12.60;;;12.20;;
22068;SDS011;13887;57.196;-2.100;2023-06-24T04:56:25;12.90;;;12.50;;
22068;SDS011;13887;57.196;-2.100;2023-06-24T04:58:56;12.50;;;12.10;;
22068;SDS011;13887;57.196;-2.100;2023-06-24T05:01:34;12.70;;;12.30;;
22068;SDS011;13887;57.196;-2.100;2023-06-24T05:04:04;13.07;;;12.67;;
22068;SDS011;13887;57.196;-2.100;2023-06-24T05:06:32;13.20;;;12.80;;
22068;SDS011;13887;57.196;-2.100;2023-06-24T05:09:03;12.80;;;12.40;;
22068;SDS011;13887;57.196;-2.100;2023-06-24T05:11:30;12.40;;;12.00;;
22068;SDS011;13887;57.196;-2.100;2023-06-24T05:14:08;12.77;;;12.37;;
22068;SDS011;13887;57.196;-2.100;2023-06-24T05:16:35;12.93;;;12.53;;
22068;SDS011;13887;57.196;-2.100;2023-06-24T05:19:09;13.00;;;12.60;;
22068;SDS011;13887;57.196;-2.100;2023-06-24T05:21:36;13.10;;;12.70;;
22068;SDS011;13887;57.196;-2.100;2023-06-24T05:24:06;12.70;;;12.30;;
22068;SDS011;13887;57.196;-2.100;2023-06-24T05:26:37;12.90;;;12.50;;
22068;SDS011;13887;57.196;-2.100;2023-06-24T05:29:07;12.43;;;12.03;;
22068;SDS011;13887;57.196;-2.100;2023-06-24T05:31:34;12.80;;;12.40;;
22068;SDS011;13887;57.196;-2.100;2023-06-24T05:34:04;12.47;;;12.07;;
22068;SDS011;13887;57.196;-2.100;2023-06-24T05:36:34;12.50;;;12.10;;
22068;SDS011;13887;57.196;-2.100;2023-06-24T05:39:06;12.50;;;12.10;;
22068;SDS011;13887;57.196;-2.100;2023-06-24T05:41:35;12.40;;;12.00;;
22068;SDS011;13887;57.196;-2.100;2023-06-24T05:44:06;12.70;;;12.30;;
22068;SDS011;13887;57.196;-2.100;2023-06-24T05:46:39;12.77;;;12.37;;
22068;SDS011;13887;57.196;-2.100;2023-06-24T05:49:08;12.90;;;12.50;;
22068;SDS011;13887;57.196;-2.100;2023-06-24T05:51:36;12.50;;;12.10;;
22068;SDS011;13887;57.196;-2.100;2023-06-24T05:54:05;12.60;;;12.20;;
22068;SDS011;13887;57.196;-2.100;2023-06-24T05:56:33;12.50;;;12.10;;
22068;SDS011;13887;57.196;-2.100;2023-06-24T05:59:09;12.13;;;11.73;;
22068;SDS011;13887;57.196;-2.100;2023-06-24T06:01:37;12.47;;;12.07;;
22068;SDS011;13887;57.196;-2.100;2023-06-24T06:04:07;12.57;;;12.17;;
22068;SDS011;13887;57.196;-2.100;2023-06-24T06:06:38;12.57;;;12.17;;
22068;SDS011;13887;57.196;-2.100;2023-06-24T06:09:06;12.40;;;12.00;;
22068;SDS011;13887;57.196;-2.100;2023-06-24T06:11:33;12.77;;;12.37;;
22068;SDS011;13887;57.196;-2.100;2023-06-24T06:14:03;12.90;;;12.50;;
22068;SDS011;13887;57.196;-2.100;2023-06-24T06:16:30;12.63;;;12.23;;
22068;SDS011;13887;57.196;-2.100;2023-06-24T06:19:01;12.80;;;12.40;;
22068;SDS011;13887;57.196;-2.100;2023-06-24T06:21:28;13.20;;;12.80;;
22068;SDS011;13887;57.196;-2.100;2023-06-24T06:23:56;12.37;;;11.97;;
22068;SDS011;13887;57.196;-2.100;2023-06-24T06:26:23;12.70;;;12.30;;
22068;SDS011;13887;57.196;-2.100;2023-06-24T06:28:50;13.10;;;12.70;;
22068;SDS011;13887;57.196;-2.100;2023-06-24T06:31:22;12.67;;;12.27;;
22068;SDS011;13887;57.196;-2.100;2023-06-24T06:33:53;12.70;;;12.30;;
22068;SDS011;13887;57.196;-2.100;2023-06-24T06:36:23;12.80;;;12.40;;
22068;SDS011;13887;57.196;-2.100;2023-06-24T06:38:53;12.60;;;12.20;;
22068;SDS011;13887;57.196;-2.100;2023-06-24T06:41:25;12.63;;;12.23;;
22068;SDS011;13887;57.196;-2.100;2023-06-24T06:43:53;13.00;;;12.60;;
22068;SDS011;13887;57.196;-2.100;2023-06-24T06:46:21;12.30;;;11.90;;
22068;SDS011;13887;57.196;-2.100;2023-06-24T06:48:49;12.77;;;12.37;;
22068;SDS011;13887;57.196;-2.100;2023-06-24T06:51:19;12.60;;;12.20;;
22068;SDS011;13887;57.196;-2.100;2023-06-24T06:53:58;12.60;;;12.20;;
22068;SDS011;13887;57.196;-2.100;2023-06-24T06:56:25;12.07;;;11.67;;
22068;SDS011;13887;57.196;-2.100;2023-06-24T06:58:57;12.27;;;11.87;;
22068;SDS011;13887;57.196;-2.100;2023-06-24T07:01:26;12.63;;;12.23;;
22068;SDS011;13887;57.196;-2.100;2023-06-24T07:03:58;12.80;;;12.40;;
22068;SDS011;13887;57.196;-2.100;2023-06-24T07:06:31;12.23;;;11.83;;
22068;SDS011;13887;57.196;-2.100;2023-06-24T07:08:59;12.23;;;11.83;;
22068;SDS011;13887;57.196;-2.100;2023-06-24T07:11:29;12.43;;;12.03;;
22068;SDS011;13887;57.196;-2.100;2023-06-24T07:13:56;12.07;;;11.67;;
22068;SDS011;13887;57.196;-2.100;2023-06-24T07:16:24;12.37;;;11.97;;
22068;SDS011;13887;57.196;-2.100;2023-06-24T07:18:51;12.67;;;12.27;;
22068;SDS011;13887;57.196;-2.100;2023-06-24T07:21:24;12.67;;;12.27;;
22068;SDS011;13887;57.196;-2.100;2023-06-24T07:23:52;12.40;;;12.00;;
22068;SDS011;13887;57.196;-2.100;2023-06-24T07:26:21;13.30;;;12.90;;
22068;SDS011;13887;57.196;-2.100;2023-06-24T07:28:51;12.87;;;12.47;;
22068;SDS011;13887;57.196;-2.100;2023-06-24T07:31:34;12.53;;;12.13;;
22068;SDS011;13887;57.196;-2.100;2023-06-24T07:34:06;12.77;;;12.37;;
22068;SDS011;13887;57.196;-2.100;2023-06-24T07:36:38;12.20;;;11.80;;
22068;SDS011;13887;57.196;-2.100;2023-06-24T07:39:11;12.63;;;12.23;;
22068;SDS011;13887;57.196;-2.100;2023-06-24T07:41:38;12.37;;;11.97;;
22068;SDS011;13887;57.196;-2.100;2023-06-24T07:44:07;12.30;;;11.90;;
22068;SDS011;13887;57.196;-2.100;2023-06-24T07:46:37;12.33;;;11.93;;
22068;SDS011;13887;57.196;-2.100;2023-06-24T07:49:10;12.60;;;12.20;;
22068;SDS011;13887;57.196;-2.100;2023-06-24T07:51:43;12.00;;;11.60;;
22068;SDS011;13887;57.196;-2.100;2023-06-24T07:54:15;12.10;;;11.70;;
22068;SDS011;13887;57.196;-2.100;2023-06-24T07:56:47;12.10;;;11.70;;
22068;SDS011;13887;57.196;-2.100;2023-06-24T07:59:17;11.90;;;11.50;;
22068;SDS011;13887;57.196;-2.100;2023-06-24T08:01:45;12.20;;;11.80;;
22068;SDS011;13887;57.196;-2.100;2023-06-24T08:04:17;12.10;;;11.70;;
22068;SDS011;13887;57.196;-2.100;2023-06-24T08:06:47;12.10;;;11.70;;
22068;SDS011;13887;57.196;-2.100;2023-06-24T08:09:15;11.87;;;11.47;;
22068;SDS011;13887;57.196;-2.100;2023-06-24T08:11:49;11.80;;;11.40;;
22068;SDS011;13887;57.196;-2.100;2023-06-24T08:14:23;11.77;;;11.37;;
22068;SDS011;13887;57.196;-2.100;2023-06-24T08:16:50;11.93;;;11.53;;
22068;SDS011;13887;57.196;-2.100;2023-06-24T08:19:21;12.00;;;11.60;;
22068;SDS011;13887;57.196;-2.100;2023-06-24T08:21:51;11.50;;;11.10;;
22068;SDS011;13887;57.196;-2.100;2023-06-24T08:24:23;11.73;;;11.33;;
22068;SDS011;13887;57.196;-2.100;2023-06-24T08:26:58;11.73;;;11.33;;
22068;SDS011;13887;57.196;-2.100;2023-06-24T08:29:25;11.70;;;11.30;;
22068;SDS011;13887;57.196;-2.100;2023-06-24T08:31:55;12.13;;;11.73;;
22068;SDS011;13887;57.196;-2.100;2023-06-24T08:34:23;11.73;;;11.33;;
22068;SDS011;13887;57.196;-2.100;2023-06-24T08:36:53;11.70;;;11.30;;
22068;SDS011;13887;57.196;-2.100;2023-06-24T08:39:20;11.80;;;11.40;;
22068;SDS011;13887;57.196;-2.100;2023-06-24T08:41:50;11.50;;;11.10;;
22068;SDS011;13887;57.196;-2.100;2023-06-24T08:44:20;11.63;;;11.23;;
22068;SDS011;13887;57.196;-2.100;2023-06-24T08:46:48;11.90;;;11.50;;
22068;SDS011;13887;57.196;-2.100;2023-06-24T08:52:13;12.23;;;11.83;;
22068;SDS011;13887;57.196;-2.100;2023-06-24T08:54:46;11.70;;;11.30;;
22068;SDS011;13887;57.196;-2.100;2023-06-24T08:57:20;12.13;;;11.73;;
22068;SDS011;13887;57.196;-2.100;2023-06-24T08:59:50;12.27;;;11.87;;
22068;SDS011;13887;57.196;-2.100;2023-06-24T09:02:20;12.10;;;11.70;;
22068;SDS011;13887;57.196;-2.100;2023-06-24T09:04:51;12.30;;;11.90;;
22068;SDS011;13887;57.196;-2.100;2023-06-24T09:07:25;12.40;;;12.00;;
22068;SDS011;13887;57.196;-2.100;2023-06-24T09:10:01;12.10;;;11.70;;
22068;SDS011;13887;57.196;-2.100;2023-06-24T09:12:33;12.40;;;12.00;;
22068;SDS011;13887;57.196;-2.100;2023-06-24T09:15:04;12.07;;;11.67;;
22068;SDS011;13887;57.196;-2.100;2023-06-24T09:17:32;12.20;;;11.80;;
22068;SDS011;13887;57.196;-2.100;2023-06-24T09:20:10;12.03;;;11.63;;
22068;SDS011;13887;57.196;-2.100;2023-06-24T09:22:42;12.07;;;11.67;;
22068;SDS011;13887;57.196;-2.100;2023-06-24T09:25:15;12.23;;;11.83;;
22068;SDS011;13887;57.196;-2.100;2023-06-24T09:27:48;12.20;;;11.80;;
22068;SDS011;13887;57.196;-2.100;2023-06-24T09:30:23;11.93;;;11.53;;
22068;SDS011;13887;57.196;-2.100;2023-06-24T09:32:51;12.20;;;11.80;;
22068;SDS011;13887;57.196;-2.100;2023-06-24T09:35:34;11.90;;;11.50;;
22068;SDS011;13887;57.196;-2.100;2023-06-24T09:38:08;11.77;;;11.37;;
22068;SDS011;13887;57.196;-2.100;2023-06-24T09:40:36;11.90;;;11.50;;
22068;SDS011;13887;57.196;-2.100;2023-06-24T09:43:07;12.00;;;11.60;;
22068;SDS011;13887;57.196;-2.100;2023-06-24T09:45:36;11.97;;;11.57;;
22068;SDS011;13887;57.196;-2.100;2023-06-24T09:48:03;11.83;;;11.43;;
22068;SDS011;13887;57.196;-2.100;2023-06-24T09:50:38;12.23;;;11.83;;
22068;SDS011;13887;57.196;-2.100;2023-06-24T09:53:11;12.27;;;11.87;;
22068;SDS011;13887;57.196;-2.100;2023-06-24T09:55:44;11.70;;;11.30;;
22068;SDS011;13887;57.196;-2.100;2023-06-24T09:58:14;11.70;;;11.30;;
22068;SDS011;13887;57.196;-2.100;2023-06-24T10:00:48;12.53;;;12.13;;
22068;SDS011;13887;57.196;-2.100;2023-06-24T10:03:17;12.23;;;11.83;;
22068;SDS011;13887;57.196;-2.100;2023-06-24T10:05:45;12.07;;;11.67;;
22068;SDS011;13887;57.196;-2.100;2023-06-24T10:08:19;12.20;;;11.80;;
22068;SDS011;13887;57.196;-2.100;2023-06-24T10:10:50;12.70;;;12.30;;
22068;SDS011;13887;57.196;-2.100;2023-06-24T10:13:21;12.40;;;12.00;;
22068;SDS011;13887;57.196;-2.100;2023-06-24T10:15:57;12.00;;;11.60;;
22068;SDS011;13887;57.196;-2.100;2023-06-24T10:18:38;12.00;;;11.60;;
22068;SDS011;13887;57.196;-2.100;2023-06-24T10:21:09;12.07;;;11.67;;
22068;SDS011;13887;57.196;-2.100;2023-06-24T10:26:32;12.37;;;11.97;;
22068;SDS011;13887;57.196;-2.100;2023-06-24T10:29:09;12.50;;;12.10;;
22068;SDS011;13887;57.196;-2.100;2023-06-24T10:34:34;12.37;;;11.97;;
22068;SDS011;13887;57.196;-2.100;2023-06-24T10:37:09;12.53;;;12.13;;
22068;SDS011;13887;57.196;-2.100;2023-06-24T10:40:02;12.20;;;11.80;;
22068;SDS011;13887;57.196;-2.100;2023-06-24T10:42:32;12.13;;;11.73;;
22068;SDS011;13887;57.196;-2.100;2023-06-24T10:47:45;12.80;;;12.40;;
22068;SDS011;13887;57.196;-2.100;2023-06-24T10:50:13;12.37;;;11.97;;
22068;SDS011;13887;57.196;-2.100;2023-06-24T10:52:49;12.70;;;12.30;;
22068;SDS011;13887;57.196;-2.100;2023-06-24T10:55:21;12.43;;;12.03;;
22068;SDS011;13887;57.196;-2.100;2023-06-24T10:58:07;13.00;;;12.60;;
22068;SDS011;13887;57.196;-2.100;2023-06-24T11:00:41;12.77;;;12.37;;
22068;SDS011;13887;57.196;-2.100;2023-06-24T11:03:11;12.13;;;11.73;;
22068;SDS011;13887;57.196;-2.100;2023-06-24T11:05:40;12.77;;;12.37;;
22068;SDS011;13887;57.196;-2.100;2023-06-24T11:08:14;12.67;;;12.27;;
22068;SDS011;13887;57.196;-2.100;2023-06-24T11:10:52;12.47;;;12.07;;
22068;SDS011;13887;57.196;-2.100;2023-06-24T11:13:25;12.57;;;12.17;;
22068;SDS011;13887;57.196;-2.100;2023-06-24T11:15:59;12.73;;;12.33;;
22068;SDS011;13887;57.196;-2.100;2023-06-24T11:18:27;12.57;;;12.17;;
22068;SDS011;13887;57.196;-2.100;2023-06-24T11:21:08;12.60;;;12.20;;
22068;SDS011;13887;57.196;-2.100;2023-06-24T11:23:39;13.07;;;12.67;;
22068;SDS011;13887;57.196;-2.100;2023-06-24T11:26:09;13.20;;;12.80;;
22068;SDS011;13887;57.196;-2.100;2023-06-24T11:28:52;12.67;;;12.27;;
22068;SDS011;13887;57.196;-2.100;2023-06-24T11:31:27;12.53;;;12.13;;
22068;SDS011;13887;57.196;-2.100;2023-06-24T11:33:56;12.60;;;12.20;;
22068;SDS011;13887;57.196;-2.100;2023-06-24T11:36:28;12.60;;;12.20;;
22068;SDS011;13887;57.196;-2.100;2023-06-24T11:38:56;12.70;;;12.30;;
22068;SDS011;13887;57.196;-2.100;2023-06-24T11:41:26;13.07;;;12.67;;
22068;SDS011;13887;57.196;-2.100;2023-06-24T11:43:57;12.63;;;12.23;;
22068;SDS011;13887;57.196;-2.100;2023-06-24T11:46:25;12.90;;;12.50;;
22068;SDS011;13887;57.196;-2.100;2023-06-24T11:49:07;12.43;;;12.03;;
22068;SDS011;13887;57.196;-2.100;2023-06-24T11:51:38;12.33;;;11.93;;
22068;SDS011;13887;57.196;-2.100;2023-06-24T11:54:17;12.67;;;12.27;;
22068;SDS011;13887;57.196;-2.100;2023-06-24T11:56:54;12.57;;;12.17;;
22068;SDS011;13887;57.196;-2.100;2023-06-24T11:59:26;12.00;;;11.60;;
22068;SDS011;13887;57.196;-2.100;2023-06-24T12:01:55;11.83;;;11.43;;
22068;SDS011;13887;57.196;-2.100;2023-06-24T12:04:27;12.10;;;11.70;;
22068;SDS011;13887;57.196;-2.100;2023-06-24T12:06:58;11.97;;;11.57;;
22068;SDS011;13887;57.196;-2.100;2023-06-24T12:09:28;11.77;;;11.37;;
22068;SDS011;13887;57.196;-2.100;2023-06-24T12:11:58;11.70;;;11.30;;
22068;SDS011;13887;57.196;-2.100;2023-06-24T12:14:26;11.90;;;11.50;;
22068;SDS011;13887;57.196;-2.100;2023-06-24T12:16:54;12.50;;;12.10;;
22068;SDS011;13887;57.196;-2.100;2023-06-24T12:19:21;11.93;;;11.53;;
22068;SDS011;13887;57.196;-2.100;2023-06-24T12:21:59;12.00;;;11.60;;
22068;SDS011;13887;57.196;-2.100;2023-06-24T12:24:30;12.17;;;11.77;;
22068;SDS011;13887;57.196;-2.100;2023-06-24T12:27:00;12.23;;;11.83;;
22068;SDS011;13887;57.196;-2.100;2023-06-24T12:29:27;12.67;;;12.27;;
22068;SDS011;13887;57.196;-2.100;2023-06-24T12:31:54;12.03;;;11.63;;
22068;SDS011;13887;57.196;-2.100;2023-06-24T12:34:22;12.20;;;11.80;;
22068;SDS011;13887;57.196;-2.100;2023-06-24T12:36:55;12.13;;;11.73;;
22068;SDS011;13887;57.196;-2.100;2023-06-24T12:39:27;12.10;;;11.70;;
22068;SDS011;13887;57.196;-2.100;2023-06-24T12:41:56;12.23;;;11.83;;
22068;SDS011;13887;57.196;-2.100;2023-06-24T12:44:24;12.53;;;12.13;;
22068;SDS011;13887;57.196;-2.100;2023-06-24T12:46:59;12.60;;;12.20;;
22068;SDS011;13887;57.196;-2.100;2023-06-24T12:49:27;12.47;;;12.07;;
22068;SDS011;13887;57.196;-2.100;2023-06-24T12:51:55;12.83;;;12.43;;
22068;SDS011;13887;57.196;-2.100;2023-06-24T12:54:27;13.00;;;12.60;;
22068;SDS011;13887;57.196;-2.100;2023-06-24T12:57:01;12.30;;;11.90;;
22068;SDS011;13887;57.196;-2.100;2023-06-24T12:59:39;12.60;;;12.20;;
22068;SDS011;13887;57.196;-2.100;2023-06-24T13:02:12;12.50;;;12.10;;
22068;SDS011;13887;57.196;-2.100;2023-06-24T13:04:40;12.60;;;12.20;;
22068;SDS011;13887;57.196;-2.100;2023-06-24T13:07:10;12.63;;;12.23;;
22068;SDS011;13887;57.196;-2.100;2023-06-24T13:09:42;12.70;;;12.30;;
22068;SDS011;13887;57.196;-2.100;2023-06-24T13:12:15;12.37;;;11.97;;
22068;SDS011;13887;57.196;-2.100;2023-06-24T13:14:45;12.93;;;12.53;;
22068;SDS011;13887;57.196;-2.100;2023-06-24T13:17:16;12.40;;;12.00;;
22068;SDS011;13887;57.196;-2.100;2023-06-24T13:19:43;12.73;;;12.33;;
22068;SDS011;13887;57.196;-2.100;2023-06-24T13:22:13;12.30;;;11.90;;
22068;SDS011;13887;57.196;-2.100;2023-06-24T13:24:41;12.70;;;12.30;;
22068;SDS011;13887;57.196;-2.100;2023-06-24T13:27:12;12.57;;;12.17;;
22068;SDS011;13887;57.196;-2.100;2023-06-24T13:29:45;12.63;;;12.23;;
22068;SDS011;13887;57.196;-2.100;2023-06-24T13:32:13;13.23;;;12.83;;
22068;SDS011;13887;57.196;-2.100;2023-06-24T13:34:40;12.60;;;12.20;;
22068;SDS011;13887;57.196;-2.100;2023-06-24T13:37:14;12.63;;;12.23;;
22068;SDS011;13887;57.196;-2.100;2023-06-24T13:39:45;12.77;;;12.37;;
22068;SDS011;13887;57.196;-2.100;2023-06-24T13:42:14;12.63;;;12.23;;
22068;SDS011;13887;57.196;-2.100;2023-06-24T13:44:42;12.80;;;12.40;;
22068;SDS011;13887;57.196;-2.100;2023-06-24T13:47:13;12.53;;;12.13;;
22068;SDS011;13887;57.196;-2.100;2023-06-24T13:49:43;13.40;;;13.00;;
22068;SDS011;13887;57.196;-2.100;2023-06-24T13:52:14;13.23;;;12.83;;
22068;SDS011;13887;57.196;-2.100;2023-06-24T13:54:44;13.13;;;12.73;;
22068;SDS011;13887;57.196;-2.100;2023-06-24T13:57:12;13.20;;;12.80;;
22068;SDS011;13887;57.196;-2.100;2023-06-24T13:59:43;13.77;;;13.27;;
22068;SDS011;13887;57.196;-2.100;2023-06-24T14:02:12;12.80;;;12.40;;
22068;SDS011;13887;57.196;-2.100;2023-06-24T14:04:39;13.40;;;13.00;;
22068;SDS011;13887;57.196;-2.100;2023-06-24T14:07:15;14.20;;;13.70;;
22068;SDS011;13887;57.196;-2.100;2023-06-24T14:09:42;13.47;;;13.07;;
22068;SDS011;13887;57.196;-2.100;2023-06-24T14:12:10;13.83;;;13.33;;
22068;SDS011;13887;57.196;-2.100;2023-06-24T14:14:42;13.77;;;13.27;;
22068;SDS011;13887;57.196;-2.100;2023-06-24T14:17:10;14.23;;;13.73;;
22068;SDS011;13887;57.196;-2.100;2023-06-24T14:19:40;13.30;;;12.90;;
22068;SDS011;13887;57.196;-2.100;2023-06-24T14:22:10;14.00;;;13.50;;
22068;SDS011;13887;57.196;-2.100;2023-06-24T14:24:37;13.93;;;13.43;;
22068;SDS011;13887;57.196;-2.100;2023-06-24T14:27:08;13.90;;;13.40;;
22068;SDS011;13887;57.196;-2.100;2023-06-24T14:29:35;14.07;;;13.57;;
22068;SDS011;13887;57.196;-2.100;2023-06-24T14:32:02;13.60;;;13.10;;
22068;SDS011;13887;57.196;-2.100;2023-06-24T14:34:30;13.47;;;13.07;;
22068;SDS011;13887;57.196;-2.100;2023-06-24T14:36:59;13.70;;;13.20;;
22068;SDS011;13887;57.196;-2.100;2023-06-24T14:39:36;13.90;;;13.40;;
22068;SDS011;13887;57.196;-2.100;2023-06-24T14:42:08;13.30;;;12.90;;
22068;SDS011;13887;57.196;-2.100;2023-06-24T14:44:35;13.73;;;13.23;;
22068;SDS011;13887;57.196;-2.100;2023-06-24T14:47:02;13.67;;;13.17;;
22068;SDS011;13887;57.196;-2.100;2023-06-24T14:49:32;13.63;;;13.13;;
22068;SDS011;13887;57.196;-2.100;2023-06-24T14:52:00;13.80;;;13.30;;
22068;SDS011;13887;57.196;-2.100;2023-06-24T14:54:30;13.80;;;13.30;;